sensor_id;sensor_type;location;lat;lon;timestamp;pressure;altitude;pressure_sealevel;temperature;humidity
69535;BME280;56754;51.568;5.048;2023-07-13T00:01:31;101359.91;;;21.99;54.47
69535;BME280;56754;51.568;5.048;2023-07-13T00:03:57;101359.13;;;21.99;54.83
69535;BME280;56754;51.568;5.048;2023-07-13T00:06:22;101364.59;;;21.99;54.28
69535;BME280;56754;51.568;5.048;2023-07-13T00:08:48;101363.03;;;21.98;54.12
69535;BME280;56754;51.568;5.048;2023-07-13T00:11:13;101377.00;;;21.96;53.39
69535;BME280;56754;51.568;5.048;2023-07-13T00:13:38;101371.13;;;21.94;53.96
69535;BME280;56754;51.568;5.048;2023-07-13T00:16:04;101366.44;;;21.91;53.55
69535;BME280;56754;51.568;5.048;2023-07-13T00:18:29;101362.94;;;21.91;53.56
69535;BME280;56754;51.568;5.048;2023-07-13T00:20:55;101377.72;;;21.90;53.56
69535;BME280;56754;51.568;5.048;2023-07-13T00:23:20;101374.56;;;21.88;53.29
69535;BME280;56754;51.568;5.048;2023-07-13T00:25:46;101372.25;;;21.86;54.71
69535;BME280;56754;51.568;5.048;2023-07-13T00:28:11;101368.31;;;21.84;53.40
69535;BME280;56754;51.568;5.048;2023-07-13T00:30:36;101379.22;;;21.84;54.04
69535;BME280;56754;51.568;5.048;2023-07-13T00:33:01;101376.84;;;21.82;54.16
69535;BME280;56754;51.568;5.048;2023-07-13T00:35:30;101379.19;;;21.80;54.04
69535;BME280;56754;51.568;5.048;2023-07-13T00:37:55;101369.06;;;21.80;53.96
69535;BME280;56754;51.568;5.048;2023-07-13T00:40:21;101370.59;;;21.78;54.57
69535;BME280;56754;51.568;5.048;2023-07-13T00:42:46;101367.44;;;21.76;53.93
69535;BME280;56754;51.568;5.048;2023-07-13T00:47:36;101361.59;;;21.74;54.25
69535;BME280;56754;51.568;5.048;2023-07-13T00:50:03;101364.31;;;21.74;54.22
69535;BME280;56754;51.568;5.048;2023-07-13T00:52:31;101376.00;;;21.74;55.17
69535;BME280;56754;51.568;5.048;2023-07-13T00:54:56;101367.03;;;21.74;54.31
69535;BME280;56754;51.568;5.048;2023-07-13T00:57:23;101367.41;;;21.72;53.59
69535;BME280;56754;51.568;5.048;2023-07-13T00:59:52;101361.97;;;21.72;55.20
69535;BME280;56754;51.568;5.048;2023-07-13T01:02:19;101376.34;;;21.73;55.54
69535;BME280;56754;51.568;5.048;2023-07-13T01:04:44;101368.59;;;21.71;55.04
69535;BME280;56754;51.568;5.048;2023-07-13T01:07:10;101381.75;;;21.69;53.99
69535;BME280;56754;51.568;5.048;2023-07-13T01:09:37;101382.50;;;21.66;54.16
69535;BME280;56754;51.568;5.048;2023-07-13T01:12:02;101373.16;;;21.64;54.48
69535;BME280;56754;51.568;5.048;2023-07-13T01:14:28;101375.09;;;21.63;54.91
69535;BME280;56754;51.568;5.048;2023-07-13T01:16:54;101378.94;;;21.62;54.94
69535;BME280;56754;51.568;5.048;2023-07-13T01:19:37;101386.72;;;21.60;54.37
69535;BME280;56754;51.568;5.048;2023-07-13T01:22:12;101391.72;;;21.58;54.79
69535;BME280;56754;51.568;5.048;2023-07-13T01:24:40;101388.22;;;21.57;55.57
69535;BME280;56754;51.568;5.048;2023-07-13T01:27:07;101396.75;;;21.56;55.56
69535;BME280;56754;51.568;5.048;2023-07-13T01:29:35;101398.69;;;21.55;54.99
69535;BME280;56754;51.568;5.048;2023-07-13T01:32:01;101400.22;;;21.53;53.89
69535;BME280;56754;51.568;5.048;2023-07-13T01:34:26;101397.88;;;21.51;55.90
69535;BME280;56754;51.568;5.048;2023-07-13T01:36:53;101400.94;;;21.50;56.03
69535;BME280;56754;51.568;5.048;2023-07-13T01:39:18;101397.44;;;21.49;54.37
69535;BME280;56754;51.568;5.048;2023-07-13T01:41:43;101397.84;;;21.48;55.28
69535;BME280;56754;51.568;5.048;2023-07-13T01:44:09;101392.75;;;21.46;54.96
69535;BME280;56754;51.568;5.048;2023-07-13T01:46:34;101391.97;;;21.46;55.95
69535;BME280;56754;51.568;5.048;2023-07-13T01:48:59;101399.75;;;21.47;56.06
69535;BME280;56754;51.568;5.048;2023-07-13T01:51:24;101387.31;;;21.46;55.33
69535;BME280;56754;51.568;5.048;2023-07-13T01:53:50;101396.63;;;21.45;55.18
69535;BME280;56754;51.568;5.048;2023-07-13T01:56:15;101399.34;;;21.45;56.28
69535;BME280;56754;51.568;5.048;2023-07-13T01:58:40;101397.78;;;21.44;54.89
69535;BME280;56754;51.568;5.048;2023-07-13T02:01:06;101398.56;;;21.45;55.78
69535;BME280;56754;51.568;5.048;2023-07-13T02:03:31;101407.88;;;21.44;56.00
69535;BME280;56754;51.568;5.048;2023-07-13T02:05:56;101405.16;;;21.44;56.40
69535;BME280;56754;51.568;5.048;2023-07-13T02:08:21;101398.94;;;21.43;55.10
69535;BME280;56754;51.568;5.048;2023-07-13T02:10:47;101404.38;;;21.43;55.98
69535;BME280;56754;51.568;5.048;2023-07-13T02:13:12;101407.09;;;21.43;55.81
69535;BME280;56754;51.568;5.048;2023-07-13T02:15:40;101405.53;;;21.42;55.53
69535;BME280;56754;51.568;5.048;2023-07-13T02:18:05;101406.66;;;21.41;54.99
69535;BME280;56754;51.568;5.048;2023-07-13T02:20:32;101407.84;;;21.40;55.16
69535;BME280;56754;51.568;5.048;2023-07-13T02:22:57;101402.78;;;21.39;54.24
69535;BME280;56754;51.568;5.048;2023-07-13T02:25:22;101408.22;;;21.39;56.20
69535;BME280;56754;51.568;5.048;2023-07-13T02:27:48;101403.13;;;21.37;56.02
69535;BME280;56754;51.568;5.048;2023-07-13T02:30:13;101399.19;;;21.34;54.68
69535;BME280;56754;51.568;5.048;2023-07-13T02:32:39;101405.78;;;21.33;55.50
69535;BME280;56754;51.568;5.048;2023-07-13T02:35:04;101399.97;;;21.35;56.46
69535;BME280;56754;51.568;5.048;2023-07-13T02:37:30;101394.91;;;21.33;55.49
69535;BME280;56754;51.568;5.048;2023-07-13T02:39:55;101392.53;;;21.32;56.10
69535;BME280;56754;51.568;5.048;2023-07-13T02:42:20;101401.84;;;21.31;55.40
69535;BME280;56754;51.568;5.048;2023-07-13T02:44:46;101392.16;;;21.30;56.57
69535;BME280;56754;51.568;5.048;2023-07-13T02:47:11;101392.91;;;21.30;56.00
69535;BME280;56754;51.568;5.048;2023-07-13T02:49:37;101391.72;;;21.28;56.11
69535;BME280;56754;51.568;5.048;2023-07-13T02:52:03;101392.88;;;21.27;56.58
69535;BME280;56754;51.568;5.048;2023-07-13T02:54:29;101397.91;;;21.25;55.99
69535;BME280;56754;51.568;5.048;2023-07-13T02:56:54;101408.34;;;21.23;56.33
69535;BME280;56754;51.568;5.048;2023-07-13T02:59:19;101388.88;;;21.21;56.41
69535;BME280;56754;51.568;5.048;2023-07-13T03:01:45;101395.50;;;21.20;55.90
69535;BME280;56754;51.568;5.048;2023-07-13T03:04:10;101394.72;;;21.19;55.83
69535;BME280;56754;51.568;5.048;2023-07-13T03:06:35;101400.50;;;21.18;57.16
69535;BME280;56754;51.568;5.048;2023-07-13T03:09:00;101400.88;;;21.16;56.07
69535;BME280;56754;51.568;5.048;2023-07-13T03:11:26;101399.31;;;21.15;55.51
69535;BME280;56754;51.568;5.048;2023-07-13T03:13:52;101406.28;;;21.12;55.11
69535;BME280;56754;51.568;5.048;2023-07-13T03:16:17;101410.13;;;21.11;56.53
69535;BME280;56754;51.568;5.048;2023-07-13T03:18:43;101407.41;;;21.11;56.67
69535;BME280;56754;51.568;5.048;2023-07-13T03:21:09;101392.25;;;21.10;56.89
69535;BME280;56754;51.568;5.048;2023-07-13T03:23:35;101400.41;;;21.10;57.34
69535;BME280;56754;51.568;5.048;2023-07-13T03:26:19;101405.41;;;21.08;57.15
69535;BME280;56754;51.568;5.048;2023-07-13T03:28:45;101403.09;;;21.07;56.44
69535;BME280;56754;51.568;5.048;2023-07-13T03:31:14;101408.53;;;21.07;56.58
69535;BME280;56754;51.568;5.048;2023-07-13T03:33:40;101417.81;;;21.06;57.45
69535;BME280;56754;51.568;5.048;2023-07-13T03:36:06;101418.63;;;21.06;56.54
69535;BME280;56754;51.568;5.048;2023-07-13T03:38:32;101425.56;;;21.04;56.94
69535;BME280;56754;51.568;5.048;2023-07-13T03:40:58;101422.06;;;21.03;56.46
69535;BME280;56754;51.568;5.048;2023-07-13T03:43:23;101420.84;;;21.01;56.96
69535;BME280;56754;51.568;5.048;2023-07-13T03:45:48;101420.09;;;21.00;57.58
69535;BME280;56754;51.568;5.048;2023-07-13T03:48:14;101422.81;;;21.00;57.33
69535;BME280;56754;51.568;5.048;2023-07-13T03:50:40;101419.66;;;20.98;56.87
69535;BME280;56754;51.568;5.048;2023-07-13T03:53:05;101425.09;;;20.98;58.22
69535;BME280;56754;51.568;5.048;2023-07-13T03:55:31;101425.44;;;20.97;56.67
69535;BME280;56754;51.568;5.048;2023-07-13T04:00:45;101433.97;;;20.95;57.23
69535;BME280;56754;51.568;5.048;2023-07-13T04:03:11;101441.34;;;20.95;57.45
69535;BME280;56754;51.568;5.048;2023-07-13T04:05:36;101442.47;;;20.94;57.22
69535;BME280;56754;51.568;5.048;2023-07-13T04:08:01;101439.75;;;20.94;57.43
69535;BME280;56754;51.568;5.048;2023-07-13T04:10:27;101444.41;;;20.93;56.95
69535;BME280;56754;51.568;5.048;2023-07-13T04:12:52;101440.56;;;20.94;57.78
69535;BME280;56754;51.568;5.048;2023-07-13T04:15:17;101445.19;;;20.94;56.08
69535;BME280;56754;51.568;5.048;2023-07-13T04:17:42;101448.28;;;20.92;57.63
69535;BME280;56754;51.568;5.048;2023-07-13T04:20:08;101451.00;;;20.92;57.46
69535;BME280;56754;51.568;5.048;2023-07-13T04:22:33;101459.94;;;20.93;57.54
69535;BME280;56754;51.568;5.048;2023-07-13T04:24:58;101461.50;;;20.94;58.31
69535;BME280;56754;51.568;5.048;2023-07-13T04:27:24;101463.44;;;20.93;56.88
69535;BME280;56754;51.568;5.048;2023-07-13T04:29:49;101458.00;;;20.93;57.34
69535;BME280;56754;51.568;5.048;2023-07-13T04:32:14;101462.69;;;20.96;57.90
69535;BME280;56754;51.568;5.048;2023-07-13T04:34:39;101465.84;;;20.98;58.67
69535;BME280;56754;51.568;5.048;2023-07-13T04:37:05;101464.69;;;20.99;57.36
69535;BME280;56754;51.568;5.048;2023-07-13T04:39:30;101466.28;;;21.00;58.11
69535;BME280;56754;51.568;5.048;2023-07-13T04:41:55;101472.91;;;21.03;57.72
69535;BME280;56754;51.568;5.048;2023-07-13T04:44:21;101476.03;;;21.05;58.18
69535;BME280;56754;51.568;5.048;2023-07-13T04:46:46;101469.81;;;21.04;57.94
69535;BME280;56754;51.568;5.048;2023-07-13T04:49:11;101478.41;;;21.06;57.91
69535;BME280;56754;51.568;5.048;2023-07-13T04:51:37;101473.75;;;21.07;58.17
69535;BME280;56754;51.568;5.048;2023-07-13T04:54:02;101472.59;;;21.08;58.04
69535;BME280;56754;51.568;5.048;2023-07-13T04:56:27;101482.34;;;21.09;57.31
69535;BME280;56754;51.568;5.048;2023-07-13T04:58:52;101484.66;;;21.10;57.70
69535;BME280;56754;51.568;5.048;2023-07-13T05:01:18;101479.66;;;21.12;58.06
69535;BME280;56754;51.568;5.048;2023-07-13T05:03:43;101474.63;;;21.14;57.47
69535;BME280;56754;51.568;5.048;2023-07-13T05:06:08;101477.78;;;21.17;57.67
69535;BME280;56754;51.568;5.048;2023-07-13T05:08:34;101489.44;;;21.17;57.97
69535;BME280;56754;51.568;5.048;2023-07-13T05:11:01;101487.91;;;21.20;57.30
69535;BME280;56754;51.568;5.048;2023-07-13T05:13:27;101487.56;;;21.21;57.83
69535;BME280;56754;51.568;5.048;2023-07-13T05:16:00;101488.78;;;21.24;58.05
69535;BME280;56754;51.568;5.048;2023-07-13T05:18:26;101494.25;;;21.27;57.52
69535;BME280;56754;51.568;5.048;2023-07-13T05:21:12;101487.31;;;21.30;57.61
69535;BME280;56754;51.568;5.048;2023-07-13T05:23:37;101488.88;;;21.31;57.11
69535;BME280;56754;51.568;5.048;2023-07-13T05:26:03;101497.44;;;21.33;56.92
69535;BME280;56754;51.568;5.048;2023-07-13T05:28:30;101494.34;;;21.34;57.03
69535;BME280;56754;51.568;5.048;2023-07-13T05:30:56;101485.88;;;21.36;57.00
69535;BME280;56754;51.568;5.048;2023-07-13T05:33:21;101498.31;;;21.37;56.43
69535;BME280;56754;51.568;5.048;2023-07-13T05:35:47;101500.66;;;21.39;56.67
69535;BME280;56754;51.568;5.048;2023-07-13T05:38:12;101504.56;;;21.41;57.32
69535;BME280;56754;51.568;5.048;2023-07-13T05:40:37;101505.38;;;21.42;57.26
69535;BME280;56754;51.568;5.048;2023-07-13T05:43:03;101505.78;;;21.44;56.63
69535;BME280;56754;51.568;5.048;2023-07-13T05:45:28;101507.75;;;21.47;56.51
69535;BME280;56754;51.568;5.048;2023-07-13T05:47:53;101503.53;;;21.49;56.90
69535;BME280;56754;51.568;5.048;2023-07-13T05:50:19;101505.50;;;21.52;56.51
69535;BME280;56754;51.568;5.048;2023-07-13T05:52:44;101511.78;;;21.56;56.45
69535;BME280;56754;51.568;5.048;2023-07-13T05:55:09;101509.47;;;21.58;56.09
69535;BME280;56754;51.568;5.048;2023-07-13T05:57:35;101518.06;;;21.61;56.35
69535;BME280;56754;51.568;5.048;2023-07-13T06:00:00;101513.03;;;21.63;56.50
69535;BME280;56754;51.568;5.048;2023-07-13T06:02:25;101520.47;;;21.66;56.32
69535;BME280;56754;51.568;5.048;2023-07-13T06:04:50;101524.41;;;21.68;55.79
69535;BME280;56754;51.568;5.048;2023-07-13T06:07:16;101528.69;;;21.69;55.53
69535;BME280;56754;51.568;5.048;2023-07-13T06:09:41;101530.66;;;21.72;55.79
69535;BME280;56754;51.568;5.048;2023-07-13T06:12:07;101537.66;;;21.73;56.04
69535;BME280;56754;51.568;5.048;2023-07-13T06:14:32;101539.25;;;21.74;56.31
69535;BME280;56754;51.568;5.048;2023-07-13T06:16:57;101543.16;;;21.77;55.53
69535;BME280;56754;51.568;5.048;2023-07-13T06:19:23;101546.28;;;21.79;55.51
69535;BME280;56754;51.568;5.048;2023-07-13T06:21:48;101549.44;;;21.81;56.04
69535;BME280;56754;51.568;5.048;2023-07-13T06:24:13;101547.50;;;21.81;55.79
69535;BME280;56754;51.568;5.048;2023-07-13T06:26:39;101555.31;;;21.83;56.14
69535;BME280;56754;51.568;5.048;2023-07-13T06:29:04;101551.84;;;21.86;56.15
69535;BME280;56754;51.568;5.048;2023-07-13T06:31:29;101547.97;;;21.87;55.89
69535;BME280;56754;51.568;5.048;2023-07-13T06:33:54;101549.50;;;21.88;56.06
69535;BME280;56754;51.568;5.048;2023-07-13T06:36:20;101548.38;;;21.89;55.98
69535;BME280;56754;51.568;5.048;2023-07-13T06:38:45;101547.22;;;21.90;55.95
69535;BME280;56754;51.568;5.048;2023-07-13T06:41:12;101555.03;;;21.92;55.88
69535;BME280;56754;51.568;5.048;2023-07-13T06:43:37;101553.88;;;21.93;56.04
69535;BME280;56754;51.568;5.048;2023-07-13T06:46:03;101554.28;;;21.95;56.21
69535;BME280;56754;51.568;5.048;2023-07-13T06:48:28;101556.63;;;21.96;56.18
69535;BME280;56754;51.568;5.048;2023-07-13T06:50:53;101556.28;;;21.98;55.92
69535;BME280;56754;51.568;5.048;2023-07-13T06:53:20;101558.25;;;22.01;56.22
69535;BME280;56754;51.568;5.048;2023-07-13T06:55:46;101564.47;;;22.01;55.90
69535;BME280;56754;51.568;5.048;2023-07-13T06:58:11;101568.41;;;22.04;56.07
69535;BME280;56754;51.568;5.048;2023-07-13T07:00:37;101563.34;;;22.06;56.32
69535;BME280;56754;51.568;5.048;2023-07-13T07:03:02;101573.88;;;22.08;55.75
69535;BME280;56754;51.568;5.048;2023-07-13T07:05:27;101566.50;;;22.08;55.88
69535;BME280;56754;51.568;5.048;2023-07-13T07:07:54;101576.22;;;22.09;56.21
69535;BME280;56754;51.568;5.048;2023-07-13T07:10:21;101569.66;;;22.10;55.57
69535;BME280;56754;51.568;5.048;2023-07-13T07:12:46;101566.19;;;22.13;55.98
69535;BME280;56754;51.568;5.048;2023-07-13T07:15:12;101571.69;;;22.17;55.99
69535;BME280;56754;51.568;5.048;2023-07-13T07:17:38;101572.13;;;22.19;56.22
69535;BME280;56754;51.568;5.048;2023-07-13T07:20:04;101565.50;;;22.20;55.75
69535;BME280;56754;51.568;5.048;2023-07-13T07:22:30;101572.94;;;22.23;55.73
69535;BME280;56754;51.568;5.048;2023-07-13T07:24:56;101565.19;;;22.25;55.49
69535;BME280;56754;51.568;5.048;2023-07-13T07:27:22;101569.84;;;22.24;55.11
69535;BME280;56754;51.568;5.048;2023-07-13T07:29:48;101570.63;;;22.25;55.36
69535;BME280;56754;51.568;5.048;2023-07-13T07:32:13;101571.03;;;22.27;55.86
69535;BME280;56754;51.568;5.048;2023-07-13T07:34:38;101566.00;;;22.29;55.31
69535;BME280;56754;51.568;5.048;2023-07-13T07:37:04;101577.31;;;22.31;55.55
69535;BME280;56754;51.568;5.048;2023-07-13T07:39:30;101578.88;;;22.32;55.26
69535;BME280;56754;51.568;5.048;2023-07-13T07:41:55;101584.75;;;22.34;54.67
69535;BME280;56754;51.568;5.048;2023-07-13T07:44:21;101587.47;;;22.34;54.90
69535;BME280;56754;51.568;5.048;2023-07-13T07:49:12;101584.78;;;22.38;54.96
69535;BME280;56754;51.568;5.048;2023-07-13T07:51:37;101577.03;;;22.40;55.05
69535;BME280;56754;51.568;5.048;2023-07-13T07:54:04;101580.97;;;22.42;55.29
69535;BME280;56754;51.568;5.048;2023-07-13T07:56:29;101577.06;;;22.43;55.05
69535;BME280;56754;51.568;5.048;2023-07-13T07:58:55;101586.78;;;22.44;54.96
69535;BME280;56754;51.568;5.048;2023-07-13T08:01:20;101579.03;;;22.46;54.90
69535;BME280;56754;51.568;5.048;2023-07-13T08:03:45;101577.53;;;22.49;54.84
69535;BME280;56754;51.568;5.048;2023-07-13T08:06:11;101584.16;;;22.52;54.64
69535;BME280;56754;51.568;5.048;2023-07-13T08:08:36;101586.91;;;22.52;54.89
69535;BME280;56754;51.568;5.048;2023-07-13T08:11:04;101585.38;;;22.54;54.90
69535;BME280;56754;51.568;5.048;2023-07-13T08:13:29;101582.25;;;22.56;54.67
69535;BME280;56754;51.568;5.048;2023-07-13T08:15:54;101587.34;;;22.57;54.72
69535;BME280;56754;51.568;5.048;2023-07-13T08:18:20;101590.84;;;22.58;54.88
69535;BME280;56754;51.568;5.048;2023-07-13T08:20:45;101589.31;;;22.60;54.67
69535;BME280;56754;51.568;5.048;2023-07-13T08:23:10;101580.75;;;22.62;54.50
69535;BME280;56754;51.568;5.048;2023-07-13T08:25:35;101584.25;;;22.62;54.57
69535;BME280;56754;51.568;5.048;2023-07-13T08:28:02;101594.03;;;22.63;54.62
69535;BME280;56754;51.568;5.048;2023-07-13T08:30:28;101590.13;;;22.64;54.44
69535;BME280;56754;51.568;5.048;2023-07-13T08:32:54;101588.97;;;22.65;54.07
69535;BME280;56754;51.568;5.048;2023-07-13T08:35:19;101587.84;;;22.66;54.26
69535;BME280;56754;51.568;5.048;2023-07-13T08:37:44;101588.22;;;22.68;54.20
69535;BME280;56754;51.568;5.048;2023-07-13T08:40:11;101589.81;;;22.69;54.15
69535;BME280;56754;51.568;5.048;2023-07-13T08:42:44;101577.75;;;22.70;54.21
69535;BME280;56754;51.568;5.048;2023-07-13T08:45:44;101593.72;;;22.72;54.37
69535;BME280;56754;51.568;5.048;2023-07-13T08:48:25;101587.13;;;22.73;54.16
69535;BME280;56754;51.568;5.048;2023-07-13T08:50:57;101583.22;;;22.74;53.93
69535;BME280;56754;51.568;5.048;2023-07-13T08:53:24;101592.19;;;22.75;54.16
69535;BME280;56754;51.568;5.048;2023-07-13T08:55:58;101579.34;;;22.75;53.97
69535;BME280;56754;51.568;5.048;2023-07-13T08:58:25;101582.88;;;22.76;54.38
69535;BME280;56754;51.568;5.048;2023-07-13T09:04:19;101582.88;;;22.79;54.30
69535;BME280;56754;51.568;5.048;2023-07-13T09:09:54;101587.97;;;22.81;54.12
69535;BME280;56754;51.568;5.048;2023-07-13T09:14:57;101582.13;;;22.82;54.52
69535;BME280;56754;51.568;5.048;2023-07-13T09:19:58;101581.78;;;22.84;54.16
69535;BME280;56754;51.568;5.048;2023-07-13T09:22:26;101584.91;;;22.86;54.27
69535;BME280;56754;51.568;5.048;2023-07-13T09:25:02;101581.38;;;22.85;54.06
69535;BME280;56754;51.568;5.048;2023-07-13T09:27:39;101583.38;;;22.88;54.12
69535;BME280;56754;51.568;5.048;2023-07-13T09:30:20;101587.69;;;22.89;53.59
69535;BME280;56754;51.568;5.048;2023-07-13T09:32:50;101587.69;;;22.89;53.75
69535;BME280;56754;51.568;5.048;2023-07-13T09:35:19;101590.78;;;22.91;54.06
69535;BME280;56754;51.568;5.048;2023-07-13T09:37:46;101594.69;;;22.90;54.09
69535;BME280;56754;51.568;5.048;2023-07-13T09:40:24;101591.97;;;22.90;54.54
69535;BME280;56754;51.568;5.048;2023-07-13T09:42:54;101594.28;;;22.92;54.07
69535;BME280;56754;51.568;5.048;2023-07-13T09:45:32;101585.34;;;22.91;54.16
69535;BME280;56754;51.568;5.048;2023-07-13T09:48:11;101591.56;;;22.92;54.46
69535;BME280;56754;51.568;5.048;2023-07-13T09:50:37;101594.28;;;22.92;53.69
69535;BME280;56754;51.568;5.048;2023-07-13T09:53:03;101595.47;;;22.91;53.97
69535;BME280;56754;51.568;5.048;2023-07-13T09:57:53;101602.88;;;22.90;53.89
69535;BME280;56754;51.568;5.048;2023-07-13T10:00:27;101602.88;;;22.90;54.05
69535;BME280;56754;51.568;5.048;2023-07-13T10:03:05;101604.03;;;22.89;54.20
69535;BME280;56754;51.568;5.048;2023-07-13T10:05:42;101614.94;;;22.89;53.78
69535;BME280;56754;51.568;5.048;2023-07-13T10:08:22;101606.75;;;22.89;53.93
69535;BME280;56754;51.568;5.048;2023-07-13T10:10:53;101605.16;;;22.88;54.31
69535;BME280;56754;51.568;5.048;2023-07-13T10:13:48;101616.84;;;22.89;53.74
69535;BME280;56754;51.568;5.048;2023-07-13T10:16:15;101614.94;;;22.89;53.97
69535;BME280;56754;51.568;5.048;2023-07-13T10:18:47;101613.75;;;22.90;53.66
69535;BME280;56754;51.568;5.048;2023-07-13T10:21:17;101614.53;;;22.91;53.89
69535;BME280;56754;51.568;5.048;2023-07-13T10:23:45;101610.66;;;22.92;53.59
69535;BME280;56754;51.568;5.048;2023-07-13T10:26:16;101619.25;;;22.94;53.43
69535;BME280;56754;51.568;5.048;2023-07-13T10:28:45;101620.84;;;22.95;53.85
69535;BME280;56754;51.568;5.048;2023-07-13T10:31:14;101616.19;;;22.96;53.29
69535;BME280;56754;51.568;5.048;2023-07-13T10:33:40;101619.31;;;22.98;53.98
69535;BME280;56754;51.568;5.048;2023-07-13T10:36:15;101602.59;;;22.99;54.09
69535;BME280;56754;51.568;5.048;2023-07-13T10:38:43;101603.00;;;23.01;54.46
69535;BME280;56754;51.568;5.048;2023-07-13T10:41:12;101611.97;;;23.02;53.03
69535;BME280;56754;51.568;5.048;2023-07-13T10:43:42;101620.91;;;23.02;52.87
69535;BME280;56754;51.568;5.048;2023-07-13T10:46:12;101625.97;;;23.04;53.38
69535;BME280;56754;51.568;5.048;2023-07-13T10:48:40;101631.84;;;23.06;53.26
69535;BME280;56754;51.568;5.048;2023-07-13T10:51:07;101627.97;;;23.07;52.22
69535;BME280;56754;51.568;5.048;2023-07-13T10:53:35;101631.50;;;23.07;52.14
69535;BME280;56754;51.568;5.048;2023-07-13T10:56:08;101639.69;;;23.07;52.58
69535;BME280;56754;51.568;5.048;2023-07-13T10:58:43;101640.44;;;23.08;52.75
69535;BME280;56754;51.568;5.048;2023-07-13T11:01:11;101642.00;;;23.09;52.70
69535;BME280;56754;51.568;5.048;2023-07-13T11:04:00;101631.88;;;23.09;53.91
69535;BME280;56754;51.568;5.048;2023-07-13T11:08:54;101640.84;;;23.10;54.08
69535;BME280;56754;51.568;5.048;2023-07-13T11:18:49;101627.22;;;23.10;52.11
69535;BME280;56754;51.568;5.048;2023-07-13T11:21:17;101636.97;;;23.11;51.53
69535;BME280;56754;51.568;5.048;2023-07-13T11:23:45;101645.16;;;23.11;52.41
69535;BME280;56754;51.568;5.048;2023-07-13T11:29:27;101625.69;;;23.12;52.78
69535;BME280;56754;51.568;5.048;2023-07-13T11:32:00;101627.25;;;23.13;52.66
69535;BME280;56754;51.568;5.048;2023-07-13T11:34:29;101627.63;;;23.12;53.25
69535;BME280;56754;51.568;5.048;2023-07-13T11:36:58;101635.44;;;23.13;51.13
69535;BME280;56754;51.568;5.048;2023-07-13T11:39:35;101639.72;;;23.14;51.45
69535;BME280;56754;51.568;5.048;2023-07-13T11:42:13;101635.84;;;23.15;52.40
69535;BME280;56754;51.568;5.048;2023-07-13T11:44:50;101635.84;;;23.15;52.58
69535;BME280;56754;51.568;5.048;2023-07-13T11:47:21;101632.75;;;23.17;51.71
69535;BME280;56754;51.568;5.048;2023-07-13T11:49:54;101635.88;;;23.19;53.72
69535;BME280;56754;51.568;5.048;2023-07-13T11:52:23;101630.03;;;23.21;53.40
69535;BME280;56754;51.568;5.048;2023-07-13T11:54:53;101629.69;;;23.22;52.00
69535;BME280;56754;51.568;5.048;2023-07-13T11:57:38;101637.88;;;23.22;51.57
69535;BME280;56754;51.568;5.048;2023-07-13T12:00:13;101630.06;;;23.24;53.71
69535;BME280;56754;51.568;5.048;2023-07-13T12:02:43;101637.09;;;23.25;52.42
69535;BME280;56754;51.568;5.048;2023-07-13T12:05:16;101642.16;;;23.27;50.19
69535;BME280;56754;51.568;5.048;2023-07-13T12:07:43;101639.88;;;23.29;49.98
69535;BME280;56754;51.568;5.048;2023-07-13T12:12:36;101638.31;;;23.31;49.27
69535;BME280;56754;51.568;5.048;2023-07-13T12:15:05;101636.78;;;23.34;53.35
69535;BME280;56754;51.568;5.048;2023-07-13T12:17:31;101639.53;;;23.34;53.60
69535;BME280;56754;51.568;5.048;2023-07-13T12:19:56;101644.59;;;23.35;52.14
69535;BME280;56754;51.568;5.048;2023-07-13T12:22:22;101636.81;;;23.37;50.47
69535;BME280;56754;51.568;5.048;2023-07-13T12:24:48;101633.69;;;23.39;53.48
69535;BME280;56754;51.568;5.048;2023-07-13T12:27:20;101644.25;;;23.41;53.17
69535;BME280;56754;51.568;5.048;2023-07-13T12:29:51;101635.31;;;23.44;53.67
69535;BME280;56754;51.568;5.048;2023-07-13T12:32:17;101645.81;;;23.45;54.45
69535;BME280;56754;51.568;5.048;2023-07-13T12:34:54;101639.22;;;23.46;49.13
69535;BME280;56754;51.568;5.048;2023-07-13T12:37:19;101652.13;;;23.49;53.32
69535;BME280;56754;51.568;5.048;2023-07-13T12:39:47;101650.16;;;23.50;49.03
69535;BME280;56754;51.568;5.048;2023-07-13T12:42:27;101650.56;;;23.52;53.14
69535;BME280;56754;51.568;5.048;2023-07-13T12:45:03;101663.84;;;23.53;53.46
69535;BME280;56754;51.568;5.048;2023-07-13T12:47:40;101659.16;;;23.54;53.51
69535;BME280;56754;51.568;5.048;2023-07-13T12:50:18;101666.56;;;23.53;49.18
69535;BME280;56754;51.568;5.048;2023-07-13T12:52:49;101675.53;;;23.54;47.84
69535;BME280;56754;51.568;5.048;2023-07-13T12:55:18;101674.75;;;23.53;52.08
69535;BME280;56754;51.568;5.048;2023-07-13T12:58:04;101677.47;;;23.53;53.49
69535;BME280;56754;51.568;5.048;2023-07-13T13:00:31;101671.25;;;23.53;50.43
69535;BME280;56754;51.568;5.048;2023-07-13T13:02:58;101681.38;;;23.52;53.75
69535;BME280;56754;51.568;5.048;2023-07-13T13:05:26;101684.88;;;23.53;54.25
69535;BME280;56754;51.568;5.048;2023-07-13T13:07:52;101684.47;;;23.51;50.74
69535;BME280;56754;51.568;5.048;2023-07-13T13:10:17;101686.06;;;23.52;53.81
69535;BME280;56754;51.568;5.048;2023-07-13T13:12:42;101684.47;;;23.51;51.16
69535;BME280;56754;51.568;5.048;2023-07-13T13:15:09;101689.91;;;23.51;53.52
69535;BME280;56754;51.568;5.048;2023-07-13T13:17:34;101689.91;;;23.51;53.25
69535;BME280;56754;51.568;5.048;2023-07-13T13:19:59;101686.81;;;23.49;51.64
69535;BME280;56754;51.568;5.048;2023-07-13T13:22:25;101695.00;;;23.49;53.18
69535;BME280;56754;51.568;5.048;2023-07-13T13:24:50;101688.72;;;23.48;53.80
69535;BME280;56754;51.568;5.048;2023-07-13T13:27:21;101698.84;;;23.48;54.02
69535;BME280;56754;51.568;5.048;2023-07-13T13:29:48;101696.91;;;23.48;53.42